createdAt,value
2022-09-03T00:00:23.716Z,18.00
2022-09-03T00:02:57.834Z,18.00
2022-09-03T00:05:47.704Z,18.00
2022-09-03T00:08:38.029Z,18.00
2022-09-03T00:11:33.139Z,18.00
2022-09-03T00:14:07.680Z,17.90
2022-09-03T00:16:56.071Z,17.90
2022-09-03T00:19:28.989Z,17.90
2022-09-03T00:22:00.279Z,17.80
2022-09-03T00:24:33.744Z,17.90
2022-09-03T00:27:08.540Z,17.90
2022-09-03T00:29:51.402Z,17.90
2022-09-03T00:32:27.821Z,17.80
2022-09-03T00:35:01.043Z,17.80
2022-09-03T00:37:28.744Z,17.90
2022-09-03T00:40:00.831Z,17.70
2022-09-03T00:42:52.410Z,17.60
2022-09-03T00:45:39.683Z,17.60
2022-09-03T00:48:17.658Z,17.60
2022-09-03T00:51:02.087Z,17.60
2022-09-03T00:53:44.141Z,17.50
2022-09-03T00:56:27.484Z,17.50
2022-09-03T00:59:22.102Z,17.40
2022-09-03T01:02:21.158Z,17.50
2022-09-03T01:05:13.788Z,17.50
2022-09-03T01:07:49.774Z,17.40
2022-09-03T01:10:46.086Z,17.40
2022-09-03T01:13:36.784Z,17.40
2022-09-03T01:16:26.399Z,17.40
2022-09-03T01:19:25.417Z,17.30
2022-09-03T01:22:20.854Z,17.20
2022-09-03T01:25:11.934Z,17.30
2022-09-03T01:27:49.497Z,17.30
2022-09-03T01:30:19.641Z,17.30
2022-09-03T01:33:20.253Z,17.20
2022-09-03T01:35:49.774Z,17.10
2022-09-03T01:38:45.653Z,17.10
2022-09-03T01:41:46.103Z,17.20
2022-09-03T01:44:27.342Z,17.10
2022-09-03T01:47:11.319Z,17.10
2022-09-03T01:50:09.948Z,17.00
2022-09-03T01:53:04.850Z,17.00
2022-09-03T01:56:09.043Z,17.00
2022-09-03T01:58:47.031Z,17.10
2022-09-03T02:01:24.788Z,17.10
2022-09-03T02:03:51.763Z,17.10
2022-09-03T02:06:20.677Z,17.10
2022-09-03T02:08:47.312Z,17.00
2022-09-03T02:11:14.033Z,17.00
2022-09-03T02:13:48.773Z,16.90
2022-09-03T02:16:24.967Z,16.90
2022-09-03T02:18:56.235Z,16.90
2022-09-03T02:21:26.884Z,16.80
2022-09-03T02:23:53.880Z,16.80
2022-09-03T02:26:23.772Z,16.90
2022-09-03T02:28:51.773Z,16.80
2022-09-03T02:31:18.568Z,16.80
2022-09-03T02:33:48.283Z,16.80
2022-09-03T02:36:19.921Z,16.80
2022-09-03T02:38:47.695Z,16.80
2022-09-03T02:41:15.399Z,16.70
2022-09-03T02:43:45.516Z,16.60
2022-09-03T02:46:21.762Z,16.60
2022-09-03T02:48:49.067Z,16.60
2022-09-03T02:51:15.903Z,16.50
2022-09-03T02:53:43.420Z,16.50
2022-09-03T02:56:10.180Z,16.60
2022-09-03T02:58:37.335Z,16.60
2022-09-03T03:01:05.181Z,16.60
2022-09-03T03:03:32.563Z,16.60
2022-09-03T03:06:02.718Z,16.50
2022-09-03T03:08:30.357Z,16.50
2022-09-03T03:10:59.368Z,16.50
2022-09-03T03:13:27.202Z,16.50
2022-09-03T03:16:01.579Z,16.50
2022-09-03T03:18:29.459Z,16.50
2022-09-03T03:20:56.141Z,16.50
2022-09-03T03:23:22.795Z,16.50
2022-09-03T03:25:49.768Z,16.50
2022-09-03T03:28:18.034Z,16.50
2022-09-03T03:30:47.625Z,16.50
2022-09-03T03:33:14.565Z,16.50
2022-09-03T03:35:42.670Z,16.50
2022-09-03T03:38:09.459Z,16.50
2022-09-03T03:40:40.803Z,16.40
2022-09-03T03:43:07.533Z,16.40
2022-09-03T03:45:34.246Z,16.40
2022-09-03T03:48:00.968Z,16.40
2022-09-03T03:50:28.074Z,16.40
2022-09-03T03:52:54.880Z,16.40
2022-09-03T03:55:21.585Z,16.40
2022-09-03T03:57:48.406Z,16.40
2022-09-03T04:00:15.717Z,16.30
2022-09-03T04:02:42.608Z,16.30
2022-09-03T04:05:09.586Z,16.30
2022-09-03T04:07:36.269Z,16.20
2022-09-03T04:10:03.163Z,16.20
2022-09-03T04:12:29.896Z,16.20
2022-09-03T04:14:56.607Z,16.20
2022-09-03T04:17:25.259Z,16.20
2022-09-03T04:19:52.129Z,16.20
2022-09-03T04:22:20.602Z,16.20
2022-09-03T04:24:47.246Z,16.20
2022-09-03T04:27:13.875Z,16.20
2022-09-03T04:29:40.560Z,16.20
2022-09-03T04:32:25.751Z,16.20
2022-09-03T04:34:52.474Z,16.20
2022-09-03T04:37:20.329Z,16.20
2022-09-03T04:39:47.215Z,16.10
2022-09-03T04:42:13.993Z,16.10
2022-09-03T04:44:41.193Z,16.00
2022-09-03T04:47:08.218Z,16.10
2022-09-03T04:49:35.017Z,16.10
2022-09-03T04:52:03.314Z,16.00
2022-09-03T04:54:30.064Z,16.10
2022-09-03T04:56:56.984Z,16.10
2022-09-03T04:59:24.022Z,16.10
2022-09-03T05:01:52.721Z,16.00
2022-09-03T05:04:20.422Z,16.10
2022-09-03T05:06:47.077Z,16.00
2022-09-03T05:09:13.955Z,16.00
2022-09-03T05:11:40.612Z,16.00
2022-09-03T05:14:11.686Z,16.10
2022-09-03T05:16:38.842Z,16.10
2022-09-03T05:19:06.091Z,16.10
2022-09-03T05:21:32.727Z,16.10
2022-09-03T05:24:00.175Z,16.10
2022-09-03T05:26:29.822Z,16.20
2022-09-03T05:28:58.993Z,16.20
2022-09-03T05:31:28.319Z,16.20
2022-09-03T05:34:00.596Z,16.20
2022-09-03T05:36:30.197Z,16.30
2022-09-03T05:38:58.847Z,16.20
2022-09-03T05:41:27.343Z,16.30
2022-09-03T05:43:56.137Z,16.30
2022-09-03T05:46:31.474Z,16.40
2022-09-03T05:49:00.330Z,16.40
2022-09-03T05:51:27.138Z,16.50
2022-09-03T05:53:55.490Z,16.40
2022-09-03T05:56:24.034Z,16.60
2022-09-03T05:58:53.753Z,16.60
2022-09-03T06:01:29.383Z,16.70
2022-09-03T06:03:58.678Z,16.70
2022-09-03T06:06:27.082Z,16.80
2022-09-03T06:08:58.838Z,16.80
2022-09-03T06:11:28.241Z,16.70
2022-09-03T06:14:01.261Z,16.70
2022-09-03T06:16:31.973Z,16.80
2022-09-03T06:19:00.725Z,16.90
2022-09-03T06:21:28.133Z,16.90
2022-09-03T06:23:58.442Z,16.90
2022-09-03T06:26:28.499Z,16.90
2022-09-03T06:28:56.256Z,17.00
2022-09-03T06:31:23.754Z,17.00
2022-09-03T06:33:50.598Z,17.10
2022-09-03T06:36:19.049Z,17.10
2022-09-03T06:38:46.725Z,17.20
2022-09-03T06:41:21.435Z,17.10
2022-09-03T06:43:49.243Z,17.30
2022-09-03T06:46:18.852Z,17.40
2022-09-03T06:48:46.320Z,17.40
2022-09-03T06:51:15.951Z,17.40
2022-09-03T06:53:45.777Z,17.40
2022-09-03T06:56:18.401Z,17.40
2022-09-03T06:58:50.556Z,17.50
2022-09-03T07:01:20.198Z,17.60
2022-09-03T07:03:52.069Z,17.60
2022-09-03T07:06:20.057Z,17.60
2022-09-03T07:08:47.007Z,17.60
2022-09-03T07:11:16.390Z,17.70
2022-09-03T07:13:45.574Z,17.70
2022-09-03T07:16:16.118Z,17.80
2022-09-03T07:18:43.866Z,17.70
2022-09-03T07:21:13.927Z,17.80
2022-09-03T07:23:42.025Z,17.80
2022-09-03T07:26:15.329Z,18.00
2022-09-03T07:28:43.351Z,18.00
2022-09-03T07:31:15.175Z,18.20
2022-09-03T07:33:42.788Z,18.20
2022-09-03T07:36:15.594Z,18.40
2022-09-03T07:38:44.940Z,18.50
2022-09-03T07:41:13.235Z,18.50
2022-09-03T07:43:55.432Z,18.60
2022-09-03T07:46:24.448Z,18.70
2022-09-03T07:48:58.862Z,18.80
2022-09-03T07:51:28.266Z,18.80
2022-09-03T07:54:00.541Z,18.80
2022-09-03T07:56:27.768Z,18.90
2022-09-03T07:58:56.392Z,19.00
2022-09-03T08:01:25.391Z,19.10
2022-09-03T08:03:53.374Z,19.20
2022-09-03T08:06:22.404Z,19.30
2022-09-03T08:08:54.170Z,19.40
2022-09-03T08:11:22.024Z,19.50
2022-09-03T08:14:10.164Z,19.50
2022-09-03T08:16:45.880Z,19.60
2022-09-03T08:19:13.297Z,19.60
2022-09-03T08:21:43.689Z,19.50
2022-09-03T08:24:11.921Z,19.60
2022-09-03T08:26:44.089Z,19.70
2022-09-03T08:29:13.446Z,19.80
2022-09-03T08:31:40.196Z,20.00
2022-09-03T08:34:07.750Z,20.00
2022-09-03T08:36:39.079Z,20.00
2022-09-03T08:39:09.925Z,20.10
2022-09-03T08:41:45.706Z,20.20
2022-09-03T08:44:28.577Z,20.20
2022-09-03T08:47:16.509Z,20.40
2022-09-03T08:49:58.422Z,20.40
2022-09-03T08:52:32.051Z,20.40
2022-09-03T08:55:20.342Z,20.40
2022-09-03T08:58:04.958Z,20.50
2022-09-03T09:00:54.416Z,21.00
2022-09-03T09:03:48.708Z,21.20
2022-09-03T09:06:37.691Z,21.40
2022-09-03T09:09:28.323Z,21.50
2022-09-03T09:12:22.719Z,21.70
2022-09-03T09:15:26.230Z,21.50
2022-09-03T09:18:29.819Z,21.20
2022-09-03T09:21:17.771Z,21.20
2022-09-03T09:23:49.084Z,21.30
2022-09-03T09:26:18.274Z,21.30
2022-09-03T09:29:00.620Z,21.30
2022-09-03T09:31:28.489Z,21.30
2022-09-03T09:33:55.527Z,21.30
2022-09-03T09:36:23.330Z,21.40
2022-09-03T09:38:49.970Z,21.50
2022-09-03T09:41:20.086Z,21.70
2022-09-03T09:44:05.253Z,21.60
2022-09-03T09:46:38.038Z,21.70
2022-09-03T09:49:22.313Z,21.80
2022-09-03T09:51:49.669Z,21.90
2022-09-03T09:54:20.081Z,21.90
2022-09-03T09:56:58.291Z,21.80
2022-09-03T09:59:24.985Z,21.90
2022-09-03T10:01:51.712Z,21.80
2022-09-03T10:04:33.257Z,21.90
2022-09-03T10:07:04.363Z,22.00
2022-09-03T10:09:33.262Z,22.20
2022-09-03T10:12:24.856Z,22.20
2022-09-03T10:15:10.975Z,22.30
2022-09-03T10:17:49.091Z,22.50
2022-09-03T10:20:32.161Z,22.50
2022-09-03T10:23:08.634Z,22.50
2022-09-03T10:25:53.698Z,22.50
2022-09-03T10:28:25.523Z,22.60
2022-09-03T10:30:57.863Z,22.40
2022-09-03T10:33:32.832Z,22.10
2022-09-03T10:36:33.161Z,22.00
2022-09-03T10:39:05.031Z,22.00
2022-09-03T10:41:55.874Z,22.00
2022-09-03T10:44:36.443Z,22.00
2022-09-03T10:47:30.289Z,22.20
2022-09-03T10:50:16.494Z,22.30
2022-09-03T10:53:05.944Z,22.40
2022-09-03T10:55:48.383Z,22.60
2022-09-03T10:58:30.738Z,22.70
2022-09-03T11:01:32.463Z,22.80
2022-09-03T11:04:31.402Z,22.80
2022-09-03T11:07:09.156Z,22.60
2022-09-03T11:09:39.912Z,22.70
2022-09-03T11:12:10.119Z,22.80
2022-09-03T11:14:42.613Z,22.80
2022-09-03T11:17:16.790Z,22.90
2022-09-03T11:19:54.027Z,22.80
2022-09-03T11:22:23.262Z,22.90
2022-09-03T11:24:59.713Z,22.90
2022-09-03T11:27:32.192Z,23.00
2022-09-03T11:30:07.637Z,23.10
2022-09-03T11:32:43.127Z,23.00
2022-09-03T11:35:31.503Z,23.20
2022-09-03T11:38:04.572Z,23.40
2022-09-03T11:40:40.217Z,23.40
2022-09-03T11:43:28.297Z,23.40
2022-09-03T11:46:21.658Z,23.30
2022-09-03T11:48:55.435Z,23.20
2022-09-03T11:51:30.130Z,23.70
2022-09-03T11:54:02.703Z,23.40
2022-09-03T11:56:31.656Z,23.40
2022-09-03T11:59:14.588Z,23.40
2022-09-03T12:01:53.091Z,23.40
2022-09-03T12:04:43.126Z,23.50
2022-09-03T12:07:20.309Z,23.50
2022-09-03T12:09:59.190Z,23.40
2022-09-03T12:12:31.927Z,23.00
2022-09-03T12:15:36.151Z,22.90
2022-09-03T12:18:19.148Z,23.10
2022-09-03T12:21:01.725Z,23.10
2022-09-03T12:23:31.868Z,23.20
2022-09-03T12:26:05.935Z,23.30
2022-09-03T12:28:40.699Z,23.30
2022-09-03T12:31:29.522Z,23.30
2022-09-03T12:34:07.566Z,23.40
2022-09-03T12:36:43.115Z,23.50
2022-09-03T12:42:23.375Z,23.60
2022-09-03T12:44:50.065Z,23.60
2022-09-03T12:47:38.057Z,23.60
2022-09-03T12:50:09.577Z,23.50
2022-09-03T12:52:41.187Z,23.40
2022-09-03T12:55:27.512Z,23.50
2022-09-03T12:58:02.194Z,23.50
2022-09-03T13:00:33.423Z,23.50
2022-09-03T13:03:08.519Z,23.30
2022-09-03T13:05:53.042Z,23.20
2022-09-03T13:08:37.074Z,23.20
2022-09-03T13:11:05.256Z,23.30
2022-09-03T13:13:35.610Z,23.40
2022-09-03T13:16:20.410Z,23.50
2022-09-03T13:19:06.970Z,23.60
2022-09-03T13:21:58.739Z,23.60
2022-09-03T13:24:26.271Z,23.70
2022-09-03T13:27:15.276Z,23.80
2022-09-03T13:29:56.921Z,23.90
2022-09-03T13:32:28.959Z,24.00
2022-09-03T13:35:18.194Z,24.00
2022-09-03T13:38:25.846Z,24.10
2022-09-03T13:41:00.880Z,24.20
2022-09-03T13:43:45.235Z,24.20
2022-09-03T13:46:36.916Z,24.20
2022-09-03T13:49:47.363Z,24.20
2022-09-03T13:52:22.962Z,24.30
2022-09-03T13:54:57.735Z,24.50
2022-09-03T13:57:43.390Z,24.70
2022-09-03T14:00:13.939Z,24.70
2022-09-03T14:02:46.850Z,24.90
2022-09-03T14:05:26.611Z,25.10
2022-09-03T14:07:56.850Z,25.10
2022-09-03T14:10:26.501Z,25.20
2022-09-03T14:13:16.075Z,25.30
2022-09-03T14:15:51.207Z,25.50
2022-09-03T14:18:41.412Z,25.60
2022-09-03T14:21:33.572Z,25.60
2022-09-03T14:24:12.142Z,25.60
2022-09-03T14:26:49.321Z,25.70
2022-09-03T14:29:17.833Z,25.50
2022-09-03T14:32:09.983Z,25.40
2022-09-03T14:35:04.685Z,25.50
2022-09-03T14:38:01.958Z,25.50
2022-09-03T14:41:01.089Z,25.10
2022-09-03T14:43:46.512Z,25.30
2022-09-03T14:46:48.117Z,25.50
2022-09-03T14:49:43.410Z,25.50
2022-09-03T14:52:28.141Z,25.60
2022-09-03T14:55:15.156Z,25.70
2022-09-03T14:57:50.675Z,25.90
2022-09-03T15:00:21.532Z,26.10
2022-09-03T15:03:02.899Z,26.00
2022-09-03T15:05:42.647Z,25.30
2022-09-03T15:08:34.728Z,25.30
2022-09-03T15:11:04.613Z,25.30
2022-09-03T15:13:45.090Z,25.00
2022-09-03T15:16:21.016Z,24.80
2022-09-03T15:18:58.605Z,24.70
2022-09-03T15:21:48.580Z,24.20
2022-09-03T15:24:53.155Z,24.00
2022-09-03T15:28:00.561Z,23.80
2022-09-03T15:30:41.423Z,23.80
2022-09-03T15:33:13.115Z,23.70
2022-09-03T15:36:06.634Z,23.70
2022-09-03T15:38:49.755Z,23.80
2022-09-03T15:41:32.930Z,23.80
2022-09-03T15:44:01.270Z,23.80
2022-09-03T15:46:48.502Z,23.80
2022-09-03T15:49:44.236Z,23.90
2022-09-03T15:52:20.258Z,25.00
2022-09-03T15:55:02.342Z,27.40
2022-09-03T15:57:50.727Z,27.70
2022-09-03T16:00:21.769Z,26.60
2022-09-03T16:02:54.589Z,25.70
2022-09-03T16:05:24.670Z,25.20
2022-09-03T16:08:29.951Z,25.20
2022-09-03T16:11:08.571Z,27.00
2022-09-03T16:13:50.607Z,27.40
2022-09-03T16:16:58.743Z,26.30
2022-09-03T16:19:32.069Z,25.20
2022-09-03T16:22:03.103Z,24.30
2022-09-03T16:24:43.847Z,23.90
2022-09-03T16:27:38.571Z,23.70
2022-09-03T16:30:37.355Z,23.40
2022-09-03T16:33:18.977Z,23.30
2022-09-03T16:36:21.897Z,23.20
2022-09-03T16:38:54.689Z,23.10
2022-09-03T16:41:43.351Z,23.10
2022-09-03T16:44:39.573Z,22.90
2022-09-03T16:47:19.083Z,22.80
2022-09-03T16:50:06.053Z,22.80
2022-09-03T16:53:03.823Z,22.70
2022-09-03T16:56:07.642Z,22.60
2022-09-03T16:58:59.276Z,22.60
2022-09-03T17:01:47.962Z,22.60
2022-09-03T17:04:36.302Z,22.60
2022-09-03T17:07:30.838Z,22.60
2022-09-03T17:10:26.142Z,22.60
2022-09-03T17:13:19.772Z,22.60
2022-09-03T17:16:11.207Z,22.50
2022-09-03T17:19:14.470Z,22.40
2022-09-03T17:21:57.567Z,22.30
2022-09-03T17:24:47.897Z,22.20
2022-09-03T17:27:50.088Z,23.00
2022-09-03T17:30:20.325Z,22.10
2022-09-03T17:33:20.278Z,22.10
2022-09-03T17:35:59.321Z,22.10
2022-09-03T17:38:40.762Z,22.10
2022-09-03T17:41:30.027Z,22.00
2022-09-03T17:44:34.706Z,22.00
2022-09-03T17:47:25.741Z,21.90
2022-09-03T17:49:56.357Z,21.90
2022-09-03T17:52:39.142Z,21.90
2022-09-03T17:55:27.583Z,21.90
2022-09-03T17:58:08.840Z,21.90
2022-09-03T18:01:00.731Z,21.70
2022-09-03T18:03:39.662Z,21.70
2022-09-03T18:06:30.059Z,21.50
2022-09-03T18:09:02.728Z,21.50
2022-09-03T18:11:38.815Z,21.50
2022-09-03T18:14:28.563Z,21.50
2022-09-03T18:17:10.474Z,21.50
2022-09-03T18:20:12.204Z,21.40
2022-09-03T18:23:23.642Z,21.40
2022-09-03T18:26:16.063Z,21.40
2022-09-03T18:29:08.924Z,21.30
2022-09-03T18:31:54.275Z,21.20
2022-09-03T18:34:47.761Z,21.20
2022-09-03T18:37:42.524Z,21.20
2022-09-03T18:40:32.958Z,21.00
2022-09-03T18:43:39.812Z,20.90
2022-09-03T18:50:26.339Z,20.60
2022-09-03T18:53:20.915Z,20.60
2022-09-03T18:56:09.429Z,20.50
2022-09-03T18:59:09.948Z,20.40
2022-09-03T19:02:01.297Z,20.50
2022-09-03T19:05:07.162Z,20.50
2022-09-03T19:08:33.168Z,20.50
2022-09-03T19:11:28.516Z,20.20
2022-09-03T19:14:21.659Z,20.20
2022-09-03T19:17:20.253Z,20.10
2022-09-03T19:20:32.381Z,20.00
2022-09-03T19:23:17.701Z,20.10
2022-09-03T19:26:03.209Z,20.10
2022-09-03T19:28:49.910Z,20.10
2022-09-03T19:32:10.222Z,20.00
2022-09-03T19:35:26.126Z,20.00
2022-09-03T19:38:28.844Z,19.90
2022-09-03T19:41:24.064Z,19.90
2022-09-03T19:44:24.862Z,19.90
2022-09-03T19:47:19.278Z,19.90
2022-09-03T19:50:31.949Z,20.00
2022-09-03T19:53:33.760Z,20.00
2022-09-03T19:56:25.255Z,19.70
2022-09-03T19:59:15.475Z,19.60
2022-09-03T20:02:01.718Z,19.70
2022-09-03T20:05:03.290Z,19.70
2022-09-03T20:07:49.025Z,19.80
2022-09-03T20:10:23.341Z,19.80
2022-09-03T20:13:05.512Z,19.60
2022-09-03T20:15:58.185Z,19.60
2022-09-03T20:18:39.451Z,19.60
2022-09-03T20:21:15.050Z,19.50
2022-09-03T20:24:00.242Z,19.60
2022-09-03T20:26:40.780Z,19.30
2022-09-03T20:29:37.761Z,19.30
2022-09-03T20:32:26.386Z,19.40
2022-09-03T20:35:05.094Z,19.50
2022-09-03T20:37:36.098Z,19.40
2022-09-03T20:40:28.707Z,19.30
2022-09-03T20:43:24.183Z,19.20
2022-09-03T20:46:00.857Z,19.10
2022-09-03T20:48:36.710Z,19.10
2022-09-03T20:51:16.122Z,19.10
2022-09-03T20:54:08.682Z,19.10
2022-09-03T20:56:38.439Z,19.20
2022-09-03T20:59:50.148Z,19.10
2022-09-03T21:02:42.575Z,19.00
2022-09-03T21:05:19.954Z,18.90
2022-09-03T21:08:17.736Z,18.70
2022-09-03T21:10:53.286Z,18.60
2022-09-03T21:13:38.856Z,18.50
2022-09-03T21:16:38.049Z,18.50
2022-09-03T21:20:00.561Z,18.60
2022-09-03T21:22:45.721Z,18.50
2022-09-03T21:25:17.662Z,18.30
2022-09-03T21:27:56.396Z,18.40
2022-09-03T21:30:23.235Z,18.30
2022-09-03T21:32:55.116Z,18.30
2022-09-03T21:35:33.719Z,18.30
2022-09-03T21:38:31.749Z,18.40
2022-09-03T21:41:20.187Z,18.40
2022-09-03T21:44:01.001Z,18.40
2022-09-03T21:46:47.085Z,18.30
2022-09-03T21:49:20.189Z,18.30
2022-09-03T21:52:05.972Z,18.30
2022-09-03T21:54:34.216Z,18.30
2022-09-03T21:57:13.996Z,18.20
2022-09-03T22:00:02.159Z,18.30
2022-09-03T22:02:32.527Z,18.40
2022-09-03T22:05:00.639Z,18.40
2022-09-03T22:07:27.239Z,18.50
2022-09-03T22:10:33.059Z,18.30
2022-09-03T22:13:14.871Z,18.30
2022-09-03T22:15:51.330Z,18.30
2022-09-03T22:18:28.493Z,18.40
2022-09-03T22:21:02.887Z,18.20
2022-09-03T22:23:47.318Z,18.30
2022-09-03T22:26:26.845Z,18.30
2022-09-03T22:29:05.752Z,18.10
2022-09-03T22:32:03.354Z,18.00
2022-09-03T22:34:54.310Z,17.90
2022-09-03T22:37:53.183Z,18.00
2022-09-03T22:40:25.359Z,18.10
2022-09-03T22:43:12.064Z,18.10
2022-09-03T22:45:50.971Z,18.00
2022-09-03T22:48:50.213Z,17.90
2022-09-03T22:51:21.641Z,17.80
2022-09-03T22:54:33.325Z,17.80
2022-09-03T22:57:02.707Z,17.80
2022-09-03T22:59:38.091Z,17.80
2022-09-03T23:02:04.728Z,17.70
2022-09-03T23:04:38.756Z,17.80
2022-09-03T23:07:18.881Z,17.80
2022-09-03T23:10:14.538Z,17.80
2022-09-03T23:13:17.518Z,17.80
2022-09-03T23:15:47.927Z,17.90
2022-09-03T23:18:19.619Z,18.00
2022-09-03T23:21:05.911Z,18.10
2022-09-03T23:23:40.465Z,18.10
2022-09-03T23:26:27.041Z,18.10
2022-09-03T23:29:02.905Z,18.10
2022-09-03T23:31:29.633Z,18.10
2022-09-03T23:33:57.291Z,18.20
2022-09-03T23:36:51.342Z,18.20
2022-09-03T23:39:33.477Z,18.20
2022-09-03T23:42:26.403Z,18.10
2022-09-03T23:45:40.671Z,18.10
2022-09-03T23:48:19.679Z,18.10
2022-09-03T23:51:14.002Z,18.00
2022-09-03T23:54:10.895Z,18.10
2022-09-03T23:56:51.809Z,18.00
2022-09-03T23:59:35.110Z,18.00
